KBAD/BAD METAR and TAF weather

Enter ICAO airport designator
Station Type Date Time Source
KBAD METAR 2021/05/14 13:56 UTC NOAA

KBAD 141356Z AUTO 08006KT 10SM CLR 18/08 A3028 RMK AO2 SLP256 T01810084


Station Type Date Time Source
KBAD Decoded METAR 2021/05/14 13:56 UTC NOAA

Barksdale Air Force Base, LA, United States (KBAD) 32-30N 093-40W
May 14, 2021 - 09:56 AM EDT / 2021.05.14 1356 UTC
Wind: from the E (080 degrees) at 7 MPH (6 KT):0
Visibility: 10 mile(s):0
Sky conditions: clear
Temperature: 64.6 F (18.1 C)
Dew Point: 47.1 F (8.4 C)
Relative Humidity: 53%
Pressure (altimeter): 30.28 in. Hg (1025 hPa)
ob: KBAD 141356Z AUTO 08006KT 10SM CLR 18/08 A3028 RMK AO2 SLP256 T01810084
cycle: 14

Station Type Date Time Source
KBAD TAF 2021/05/14 10:08 UTC NOAA

TAF KBAD 141000Z 1410/1516 06009KT 9999 SKC QNH3017INS
BECMG 1502/1503 12005KT 9999 SKC QNH3015INS
BECMG 1515/1516 17010KT 9999 SCT030 QNH3016INS TX25/1421Z TN12/1412Z

Example: see airport list